sensor_id;sensor_type;location;lat;lon;timestamp;temperature;humidity
6270;DHT22;3168;51.684;6.954;2022-12-20T00:02:20;9.80;1.00
6270;DHT22;3168;51.684;6.954;2022-12-20T00:04:46;9.80;1.00
6270;DHT22;3168;51.684;6.954;2022-12-20T00:07:12;9.90;1.00
6270;DHT22;3168;51.684;6.954;2022-12-20T00:09:37;9.80;1.00
6270;DHT22;3168;51.684;6.954;2022-12-20T00:12:03;9.90;1.00
6270;DHT22;3168;51.684;6.954;2022-12-20T00:14:29;9.80;1.00
6270;DHT22;3168;51.684;6.954;2022-12-20T00:16:55;10.10;1.00
6270;DHT22;3168;51.684;6.954;2022-12-20T00:19:21;10.10;1.00
6270;DHT22;3168;51.684;6.954;2022-12-20T00:21:47;10.10;1.00
6270;DHT22;3168;51.684;6.954;2022-12-20T00:24:13;10.00;1.00
6270;DHT22;3168;51.684;6.954;2022-12-20T00:26:38;10.10;1.00
6270;DHT22;3168;51.684;6.954;2022-12-20T00:29:04;10.10;1.00
6270;DHT22;3168;51.684;6.954;2022-12-20T00:31:30;10.20;1.00
6270;DHT22;3168;51.684;6.954;2022-12-20T00:33:56;10.20;1.00
6270;DHT22;3168;51.684;6.954;2022-12-20T00:36:22;10.20;1.00
6270;DHT22;3168;51.684;6.954;2022-12-20T00:38:49;10.30;1.00
6270;DHT22;3168;51.684;6.954;2022-12-20T00:41:16;10.30;1.00
6270;DHT22;3168;51.684;6.954;2022-12-20T00:43:41;10.30;1.00
6270;DHT22;3168;51.684;6.954;2022-12-20T00:46:07;10.20;1.00
6270;DHT22;3168;51.684;6.954;2022-12-20T00:48:32;10.20;1.00
6270;DHT22;3168;51.684;6.954;2022-12-20T00:50:59;10.30;1.00
6270;DHT22;3168;51.684;6.954;2022-12-20T00:53:24;10.30;1.00
6270;DHT22;3168;51.684;6.954;2022-12-20T00:55:50;10.30;1.00
6270;DHT22;3168;51.684;6.954;2022-12-20T00:58:16;10.30;1.00
6270;DHT22;3168;51.684;6.954;2022-12-20T01:00:42;10.30;1.00
6270;DHT22;3168;51.684;6.954;2022-12-20T01:03:08;10.30;1.00
6270;DHT22;3168;51.684;6.954;2022-12-20T01:05:34;10.30;1.00
6270;DHT22;3168;51.684;6.954;2022-12-20T01:07:59;10.20;1.00
6270;DHT22;3168;51.684;6.954;2022-12-20T01:10:25;10.10;1.00
6270;DHT22;3168;51.684;6.954;2022-12-20T01:12:51;10.20;1.00
6270;DHT22;3168;51.684;6.954;2022-12-20T01:15:17;10.00;1.00
6270;DHT22;3168;51.684;6.954;2022-12-20T01:17:43;10.30;1.00
6270;DHT22;3168;51.684;6.954;2022-12-20T01:20:10;10.40;1.00
6270;DHT22;3168;51.684;6.954;2022-12-20T01:22:36;10.40;1.00
6270;DHT22;3168;51.684;6.954;2022-12-20T01:25:02;10.30;1.00
6270;DHT22;3168;51.684;6.954;2022-12-20T01:27:27;10.30;1.00
6270;DHT22;3168;51.684;6.954;2022-12-20T01:29:53;10.30;1.00
6270;DHT22;3168;51.684;6.954;2022-12-20T01:32:19;10.30;1.00
6270;DHT22;3168;51.684;6.954;2022-12-20T01:34:45;10.40;1.00
6270;DHT22;3168;51.684;6.954;2022-12-20T01:37:11;10.30;1.00
6270;DHT22;3168;51.684;6.954;2022-12-20T01:39:37;10.30;1.00
6270;DHT22;3168;51.684;6.954;2022-12-20T01:42:02;10.40;1.00
6270;DHT22;3168;51.684;6.954;2022-12-20T01:44:52;10.40;1.00
6270;DHT22;3168;51.684;6.954;2022-12-20T01:47:19;10.30;1.00
6270;DHT22;3168;51.684;6.954;2022-12-20T01:49:45;10.30;1.00
6270;DHT22;3168;51.684;6.954;2022-12-20T01:52:12;10.20;1.00
6270;DHT22;3168;51.684;6.954;2022-12-20T01:54:41;10.20;1.00
6270;DHT22;3168;51.684;6.954;2022-12-20T01:57:07;10.10;1.00
6270;DHT22;3168;51.684;6.954;2022-12-20T01:59:32;10.00;1.00
6270;DHT22;3168;51.684;6.954;2022-12-20T02:01:57;10.00;1.00
6270;DHT22;3168;51.684;6.954;2022-12-20T02:04:23;9.90;1.00
6270;DHT22;3168;51.684;6.954;2022-12-20T02:06:49;9.90;1.00
6270;DHT22;3168;51.684;6.954;2022-12-20T02:09:15;9.80;1.00
6270;DHT22;3168;51.684;6.954;2022-12-20T02:11:58;9.80;1.00
6270;DHT22;3168;51.684;6.954;2022-12-20T02:20:28;9.70;1.00
6270;DHT22;3168;51.684;6.954;2022-12-20T02:23:24;9.80;1.00
6270;DHT22;3168;51.684;6.954;2022-12-20T02:26:03;9.80;1.00
6270;DHT22;3168;51.684;6.954;2022-12-20T02:28:32;9.90;1.00
6270;DHT22;3168;51.684;6.954;2022-12-20T02:30:54;9.80;1.00
6270;DHT22;3168;51.684;6.954;2022-12-20T02:33:20;9.90;1.00
6270;DHT22;3168;51.684;6.954;2022-12-20T02:35:46;9.80;1.00
6270;DHT22;3168;51.684;6.954;2022-12-20T02:38:27;9.80;1.00
6270;DHT22;3168;51.684;6.954;2022-12-20T02:40:52;9.80;1.00
6270;DHT22;3168;51.684;6.954;2022-12-20T02:43:17;9.80;1.00
6270;DHT22;3168;51.684;6.954;2022-12-20T02:45:48;9.80;1.00
6270;DHT22;3168;51.684;6.954;2022-12-20T02:48:14;9.80;1.00
6270;DHT22;3168;51.684;6.954;2022-12-20T02:50:43;9.90;1.00
6270;DHT22;3168;51.684;6.954;2022-12-20T02:53:08;9.90;1.00
6270;DHT22;3168;51.684;6.954;2022-12-20T02:55:45;9.80;1.00
6270;DHT22;3168;51.684;6.954;2022-12-20T02:58:15;9.80;1.00
6270;DHT22;3168;51.684;6.954;2022-12-20T03:00:37;9.80;1.00
6270;DHT22;3168;51.684;6.954;2022-12-20T03:03:02;9.90;1.00
6270;DHT22;3168;51.684;6.954;2022-12-20T03:05:38;10.10;1.00
6270;DHT22;3168;51.684;6.954;2022-12-20T03:08:01;9.90;1.00
6270;DHT22;3168;51.684;6.954;2022-12-20T03:10:27;10.00;1.00
6270;DHT22;3168;51.684;6.954;2022-12-20T03:12:53;9.90;1.00
6270;DHT22;3168;51.684;6.954;2022-12-20T03:15:19;10.00;1.00
6270;DHT22;3168;51.684;6.954;2022-12-20T03:17:45;10.00;1.00
6270;DHT22;3168;51.684;6.954;2022-12-20T03:20:11;10.10;1.00
6270;DHT22;3168;51.684;6.954;2022-12-20T03:22:36;9.90;3.50
6270;DHT22;3168;51.684;6.954;2022-12-20T03:25:03;9.90;5.70
6270;DHT22;3168;51.684;6.954;2022-12-20T03:27:29;9.90;8.70
6270;DHT22;3168;51.684;6.954;2022-12-20T03:29:55;9.80;13.30
6270;DHT22;3168;51.684;6.954;2022-12-20T03:32:21;9.80;16.50
6270;DHT22;3168;51.684;6.954;2022-12-20T03:34:46;9.70;21.60
6270;DHT22;3168;51.684;6.954;2022-12-20T03:37:12;9.70;26.10
6270;DHT22;3168;51.684;6.954;2022-12-20T03:39:38;9.70;29.70
6270;DHT22;3168;51.684;6.954;2022-12-20T03:42:04;9.60;33.70
6270;DHT22;3168;51.684;6.954;2022-12-20T03:44:30;9.60;39.10
6270;DHT22;3168;51.684;6.954;2022-12-20T03:46:55;9.60;42.30
6270;DHT22;3168;51.684;6.954;2022-12-20T03:49:21;9.60;43.10
6270;DHT22;3168;51.684;6.954;2022-12-20T03:51:47;9.60;40.60
6270;DHT22;3168;51.684;6.954;2022-12-20T03:54:13;9.60;38.50
6270;DHT22;3168;51.684;6.954;2022-12-20T03:56:39;9.70;33.90
6270;DHT22;3168;51.684;6.954;2022-12-20T03:59:05;9.70;34.00
6270;DHT22;3168;51.684;6.954;2022-12-20T04:01:31;9.70;37.00
6270;DHT22;3168;51.684;6.954;2022-12-20T04:03:57;9.70;35.40
6270;DHT22;3168;51.684;6.954;2022-12-20T04:06:23;9.80;36.40
6270;DHT22;3168;51.684;6.954;2022-12-20T04:08:49;9.80;35.30
6270;DHT22;3168;51.684;6.954;2022-12-20T04:11:15;9.90;29.50
6270;DHT22;3168;51.684;6.954;2022-12-20T04:13:43;9.80;30.20
6270;DHT22;3168;51.684;6.954;2022-12-20T04:16:08;9.80;33.90
6270;DHT22;3168;51.684;6.954;2022-12-20T04:18:34;9.80;36.40
6270;DHT22;3168;51.684;6.954;2022-12-20T04:21:00;9.70;35.40
6270;DHT22;3168;51.684;6.954;2022-12-20T04:23:25;9.70;37.30
6270;DHT22;3168;51.684;6.954;2022-12-20T04:25:51;9.70;40.20
6270;DHT22;3168;51.684;6.954;2022-12-20T04:28:17;9.70;42.80
6270;DHT22;3168;51.684;6.954;2022-12-20T04:30:43;9.70;40.20
6270;DHT22;3168;51.684;6.954;2022-12-20T04:33:09;9.70;38.60
6270;DHT22;3168;51.684;6.954;2022-12-20T04:35:35;9.70;38.10
6270;DHT22;3168;51.684;6.954;2022-12-20T04:38:01;9.70;40.10
6270;DHT22;3168;51.684;6.954;2022-12-20T04:40:27;9.70;39.90
6270;DHT22;3168;51.684;6.954;2022-12-20T04:42:53;9.70;41.40
6270;DHT22;3168;51.684;6.954;2022-12-20T04:45:18;9.70;43.20
6270;DHT22;3168;51.684;6.954;2022-12-20T04:47:44;9.70;43.30
6270;DHT22;3168;51.684;6.954;2022-12-20T04:50:11;9.70;49.30
6270;DHT22;3168;51.684;6.954;2022-12-20T04:52:37;9.70;49.30
6270;DHT22;3168;51.684;6.954;2022-12-20T04:55:09;9.70;47.90
6270;DHT22;3168;51.684;6.954;2022-12-20T04:57:34;9.70;48.10
6270;DHT22;3168;51.684;6.954;2022-12-20T05:00:00;9.70;47.40
6270;DHT22;3168;51.684;6.954;2022-12-20T05:02:26;9.80;47.90
6270;DHT22;3168;51.684;6.954;2022-12-20T05:04:52;9.80;49.40
6270;DHT22;3168;51.684;6.954;2022-12-20T05:07:18;9.80;52.30
6270;DHT22;3168;51.684;6.954;2022-12-20T05:09:43;9.80;52.60
6270;DHT22;3168;51.684;6.954;2022-12-20T05:12:09;9.80;58.30
6270;DHT22;3168;51.684;6.954;2022-12-20T05:14:35;9.80;69.10
6270;DHT22;3168;51.684;6.954;2022-12-20T05:17:01;9.70;71.40
6270;DHT22;3168;51.684;6.954;2022-12-20T05:19:27;9.80;77.20
6270;DHT22;3168;51.684;6.954;2022-12-20T05:21:53;9.70;80.80
6270;DHT22;3168;51.684;6.954;2022-12-20T05:24:24;9.60;86.70
6270;DHT22;3168;51.684;6.954;2022-12-20T05:26:56;9.60;90.20
6270;DHT22;3168;51.684;6.954;2022-12-20T05:29:22;9.70;91.80
6270;DHT22;3168;51.684;6.954;2022-12-20T05:31:48;9.60;90.20
6270;DHT22;3168;51.684;6.954;2022-12-20T05:34:14;9.60;91.20
6270;DHT22;3168;51.684;6.954;2022-12-20T05:36:39;9.60;90.90
6270;DHT22;3168;51.684;6.954;2022-12-20T05:39:05;9.60;91.00
6270;DHT22;3168;51.684;6.954;2022-12-20T05:41:31;9.60;91.50
6270;DHT22;3168;51.684;6.954;2022-12-20T05:43:57;9.60;91.00
6270;DHT22;3168;51.684;6.954;2022-12-20T05:46:23;9.70;91.10
6270;DHT22;3168;51.684;6.954;2022-12-20T05:48:49;9.60;90.30
6270;DHT22;3168;51.684;6.954;2022-12-20T05:51:14;9.70;91.10
6270;DHT22;3168;51.684;6.954;2022-12-20T05:53:40;9.70;90.20
6270;DHT22;3168;51.684;6.954;2022-12-20T05:56:06;9.70;90.70
6270;DHT22;3168;51.684;6.954;2022-12-20T05:58:32;9.70;86.70
6270;DHT22;3168;51.684;6.954;2022-12-20T06:01:02;9.70;86.40
6270;DHT22;3168;51.684;6.954;2022-12-20T06:03:27;9.70;84.70
6270;DHT22;3168;51.684;6.954;2022-12-20T06:05:53;9.80;80.40
6270;DHT22;3168;51.684;6.954;2022-12-20T06:08:18;9.70;79.30
6270;DHT22;3168;51.684;6.954;2022-12-20T06:10:44;9.70;79.30
6270;DHT22;3168;51.684;6.954;2022-12-20T06:13:11;9.70;79.60
6270;DHT22;3168;51.684;6.954;2022-12-20T06:15:36;9.70;79.60
6270;DHT22;3168;51.684;6.954;2022-12-20T06:18:03;9.70;71.40
6270;DHT22;3168;51.684;6.954;2022-12-20T06:20:29;9.70;71.10
6270;DHT22;3168;51.684;6.954;2022-12-20T06:22:55;9.70;67.20
6270;DHT22;3168;51.684;6.954;2022-12-20T06:25:21;9.70;66.20
6270;DHT22;3168;51.684;6.954;2022-12-20T06:27:46;9.70;61.50
6270;DHT22;3168;51.684;6.954;2022-12-20T06:30:13;9.80;59.50
6270;DHT22;3168;51.684;6.954;2022-12-20T06:32:38;9.80;54.40
6270;DHT22;3168;51.684;6.954;2022-12-20T06:35:05;9.70;53.90
6270;DHT22;3168;51.684;6.954;2022-12-20T06:37:31;9.70;52.50
6270;DHT22;3168;51.684;6.954;2022-12-20T06:39:56;9.80;48.10
6270;DHT22;3168;51.684;6.954;2022-12-20T06:42:22;9.90;43.50
6270;DHT22;3168;51.684;6.954;2022-12-20T06:44:48;9.90;41.30
6270;DHT22;3168;51.684;6.954;2022-12-20T06:47:14;9.90;36.30
6270;DHT22;3168;51.684;6.954;2022-12-20T06:49:40;9.80;36.10
6270;DHT22;3168;51.684;6.954;2022-12-20T06:52:06;9.90;34.10
6270;DHT22;3168;51.684;6.954;2022-12-20T06:54:32;9.90;31.10
6270;DHT22;3168;51.684;6.954;2022-12-20T06:56:58;9.90;28.00
6270;DHT22;3168;51.684;6.954;2022-12-20T06:59:24;10.00;24.90
6270;DHT22;3168;51.684;6.954;2022-12-20T07:01:50;9.90;25.30
6270;DHT22;3168;51.684;6.954;2022-12-20T07:04:16;10.00;23.50
6270;DHT22;3168;51.684;6.954;2022-12-20T07:06:42;10.10;20.50
6270;DHT22;3168;51.684;6.954;2022-12-20T07:09:07;10.00;19.60
6270;DHT22;3168;51.684;6.954;2022-12-20T07:11:33;10.00;18.00
6270;DHT22;3168;51.684;6.954;2022-12-20T07:13:59;10.10;18.50
6270;DHT22;3168;51.684;6.954;2022-12-20T07:16:26;10.10;13.30
6270;DHT22;3168;51.684;6.954;2022-12-20T07:18:52;10.20;13.30
6270;DHT22;3168;51.684;6.954;2022-12-20T07:21:18;10.10;13.30
6270;DHT22;3168;51.684;6.954;2022-12-20T07:23:44;10.20;11.00
6270;DHT22;3168;51.684;6.954;2022-12-20T07:26:10;10.20;9.10
6270;DHT22;3168;51.684;6.954;2022-12-20T07:28:35;10.20;7.70
6270;DHT22;3168;51.684;6.954;2022-12-20T07:31:02;10.30;5.80
6270;DHT22;3168;51.684;6.954;2022-12-20T07:33:27;10.30;5.20
6270;DHT22;3168;51.684;6.954;2022-12-20T07:35:59;10.20;5.10
6270;DHT22;3168;51.684;6.954;2022-12-20T07:38:19;10.30;3.60
6270;DHT22;3168;51.684;6.954;2022-12-20T07:40:45;10.40;1.90
6270;DHT22;3168;51.684;6.954;2022-12-20T07:43:10;10.40;1.00
6270;DHT22;3168;51.684;6.954;2022-12-20T07:45:36;10.40;1.00
6270;DHT22;3168;51.684;6.954;2022-12-20T07:48:04;10.50;1.00
6270;DHT22;3168;51.684;6.954;2022-12-20T07:50:30;10.50;1.00
6270;DHT22;3168;51.684;6.954;2022-12-20T07:52:55;10.50;1.00
6270;DHT22;3168;51.684;6.954;2022-12-20T07:55:21;10.50;1.00
6270;DHT22;3168;51.684;6.954;2022-12-20T07:57:51;10.40;1.00
6270;DHT22;3168;51.684;6.954;2022-12-20T08:00:16;10.40;1.00
6270;DHT22;3168;51.684;6.954;2022-12-20T08:02:49;10.50;1.00
6270;DHT22;3168;51.684;6.954;2022-12-20T08:05:13;10.50;1.00
6270;DHT22;3168;51.684;6.954;2022-12-20T08:07:39;10.50;1.00
6270;DHT22;3168;51.684;6.954;2022-12-20T08:10:06;10.50;1.00
6270;DHT22;3168;51.684;6.954;2022-12-20T08:12:31;10.50;1.00
6270;DHT22;3168;51.684;6.954;2022-12-20T08:14:57;10.50;1.00
6270;DHT22;3168;51.684;6.954;2022-12-20T08:17:23;10.50;1.00
6270;DHT22;3168;51.684;6.954;2022-12-20T08:19:49;10.50;1.00
6270;DHT22;3168;51.684;6.954;2022-12-20T08:22:15;10.50;1.00
6270;DHT22;3168;51.684;6.954;2022-12-20T08:24:41;10.50;1.00
6270;DHT22;3168;51.684;6.954;2022-12-20T08:27:07;10.60;1.00
6270;DHT22;3168;51.684;6.954;2022-12-20T08:29:32;10.60;1.00
6270;DHT22;3168;51.684;6.954;2022-12-20T08:31:58;10.60;1.00
6270;DHT22;3168;51.684;6.954;2022-12-20T08:34:24;10.60;1.00
6270;DHT22;3168;51.684;6.954;2022-12-20T08:36:50;10.70;1.00
6270;DHT22;3168;51.684;6.954;2022-12-20T08:39:16;10.60;1.00
6270;DHT22;3168;51.684;6.954;2022-12-20T08:41:41;10.70;1.00
6270;DHT22;3168;51.684;6.954;2022-12-20T08:44:07;10.70;1.00
6270;DHT22;3168;51.684;6.954;2022-12-20T08:46:33;10.70;1.00
6270;DHT22;3168;51.684;6.954;2022-12-20T08:48:59;10.80;1.00
6270;DHT22;3168;51.684;6.954;2022-12-20T08:51:25;10.90;1.00
6270;DHT22;3168;51.684;6.954;2022-12-20T08:53:51;10.90;1.00
6270;DHT22;3168;51.684;6.954;2022-12-20T08:56:17;10.90;1.00
6270;DHT22;3168;51.684;6.954;2022-12-20T08:58:43;10.90;1.00
6270;DHT22;3168;51.684;6.954;2022-12-20T09:01:10;10.90;1.00
6270;DHT22;3168;51.684;6.954;2022-12-20T09:03:34;10.90;1.00
6270;DHT22;3168;51.684;6.954;2022-12-20T09:06:00;10.90;1.00
6270;DHT22;3168;51.684;6.954;2022-12-20T09:08:26;11.00;1.00
6270;DHT22;3168;51.684;6.954;2022-12-20T09:10:52;11.00;1.00
6270;DHT22;3168;51.684;6.954;2022-12-20T09:13:18;11.00;1.00
6270;DHT22;3168;51.684;6.954;2022-12-20T09:15:44;11.10;1.00
6270;DHT22;3168;51.684;6.954;2022-12-20T09:18:10;11.10;1.00
6270;DHT22;3168;51.684;6.954;2022-12-20T09:20:40;11.10;1.00
6270;DHT22;3168;51.684;6.954;2022-12-20T09:23:01;11.10;1.00
6270;DHT22;3168;51.684;6.954;2022-12-20T09:25:27;11.20;1.00
6270;DHT22;3168;51.684;6.954;2022-12-20T09:27:53;11.20;1.00
6270;DHT22;3168;51.684;6.954;2022-12-20T09:30:20;11.20;1.00
6270;DHT22;3168;51.684;6.954;2022-12-20T09:32:46;11.20;1.00
6270;DHT22;3168;51.684;6.954;2022-12-20T09:35:11;11.20;1.00
6270;DHT22;3168;51.684;6.954;2022-12-20T09:37:37;11.20;1.00
6270;DHT22;3168;51.684;6.954;2022-12-20T09:40:04;11.30;1.00
6270;DHT22;3168;51.684;6.954;2022-12-20T09:42:31;11.40;1.00
6270;DHT22;3168;51.684;6.954;2022-12-20T09:45:00;11.30;1.00
6270;DHT22;3168;51.684;6.954;2022-12-20T09:47:24;11.40;1.00
6270;DHT22;3168;51.684;6.954;2022-12-20T09:49:51;11.40;1.00
6270;DHT22;3168;51.684;6.954;2022-12-20T09:52:24;11.40;1.00
6270;DHT22;3168;51.684;6.954;2022-12-20T09:54:55;11.40;1.00
6270;DHT22;3168;51.684;6.954;2022-12-20T09:57:30;11.40;1.00
6270;DHT22;3168;51.684;6.954;2022-12-20T09:59:54;11.40;1.00
6270;DHT22;3168;51.684;6.954;2022-12-20T10:02:20;11.40;1.00
6270;DHT22;3168;51.684;6.954;2022-12-20T10:04:44;11.30;1.00
6270;DHT22;3168;51.684;6.954;2022-12-20T10:07:25;11.50;1.00
6270;DHT22;3168;51.684;6.954;2022-12-20T10:10:58;11.40;1.00
6270;DHT22;3168;51.684;6.954;2022-12-20T10:12:42;11.40;1.00
6270;DHT22;3168;51.684;6.954;2022-12-20T10:15:30;11.40;1.00
6270;DHT22;3168;51.684;6.954;2022-12-20T10:18:02;11.40;1.00
6270;DHT22;3168;51.684;6.954;2022-12-20T10:20:39;11.50;1.00
6270;DHT22;3168;51.684;6.954;2022-12-20T10:23:10;11.50;1.00
6270;DHT22;3168;51.684;6.954;2022-12-20T10:25:33;11.50;1.00
6270;DHT22;3168;51.684;6.954;2022-12-20T10:28:00;11.50;1.00
6270;DHT22;3168;51.684;6.954;2022-12-20T10:30:25;11.50;1.00
6270;DHT22;3168;51.684;6.954;2022-12-20T10:32:52;11.50;1.00
6270;DHT22;3168;51.684;6.954;2022-12-20T10:37:59;11.50;1.00
6270;DHT22;3168;51.684;6.954;2022-12-20T10:40:26;11.40;1.00
6270;DHT22;3168;51.684;6.954;2022-12-20T10:42:51;11.40;1.00
6270;DHT22;3168;51.684;6.954;2022-12-20T10:45:35;11.30;1.00
6270;DHT22;3168;51.684;6.954;2022-12-20T10:48:01;11.30;1.00
6270;DHT22;3168;51.684;6.954;2022-12-20T10:50:26;11.20;1.00
6270;DHT22;3168;51.684;6.954;2022-12-20T10:53:18;11.20;1.00
6270;DHT22;3168;51.684;6.954;2022-12-20T10:55:42;11.20;1.00
6270;DHT22;3168;51.684;6.954;2022-12-20T10:58:32;11.30;1.00
6270;DHT22;3168;51.684;6.954;2022-12-20T11:01:04;11.20;1.00
6270;DHT22;3168;51.684;6.954;2022-12-20T11:03:28;11.20;1.00
6270;DHT22;3168;51.684;6.954;2022-12-20T11:05:55;11.30;1.00
6270;DHT22;3168;51.684;6.954;2022-12-20T11:08:20;11.40;1.00
6270;DHT22;3168;51.684;6.954;2022-12-20T11:10:47;11.50;1.00
6270;DHT22;3168;51.684;6.954;2022-12-20T11:13:19;11.40;1.00
6270;DHT22;3168;51.684;6.954;2022-12-20T11:15:46;11.40;1.00
6270;DHT22;3168;51.684;6.954;2022-12-20T11:18:14;11.40;1.00
6270;DHT22;3168;51.684;6.954;2022-12-20T11:20:51;11.50;1.00
6270;DHT22;3168;51.684;6.954;2022-12-20T11:23:54;11.50;1.00
6270;DHT22;3168;51.684;6.954;2022-12-20T11:26:57;11.50;1.00
6270;DHT22;3168;51.684;6.954;2022-12-20T11:29:59;11.40;1.00
6270;DHT22;3168;51.684;6.954;2022-12-20T11:32:41;11.50;1.00
6270;DHT22;3168;51.684;6.954;2022-12-20T11:34:57;11.50;1.00
6270;DHT22;3168;51.684;6.954;2022-12-20T11:37:19;11.50;1.00
6270;DHT22;3168;51.684;6.954;2022-12-20T11:42:33;11.60;1.00
6270;DHT22;3168;51.684;6.954;2022-12-20T11:45:04;11.60;1.00
6270;DHT22;3168;51.684;6.954;2022-12-20T11:47:41;11.60;1.00
6270;DHT22;3168;51.684;6.954;2022-12-20T11:53:07;11.60;1.00
6270;DHT22;3168;51.684;6.954;2022-12-20T11:55:35;11.80;1.00
6270;DHT22;3168;51.684;6.954;2022-12-20T11:58:04;11.80;1.00
6270;DHT22;3168;51.684;6.954;2022-12-20T12:00:31;11.60;1.00
6270;DHT22;3168;51.684;6.954;2022-12-20T12:03:00;11.60;1.00
6270;DHT22;3168;51.684;6.954;2022-12-20T12:05:31;11.60;1.00
6270;DHT22;3168;51.684;6.954;2022-12-20T12:07:57;11.50;1.00
6270;DHT22;3168;51.684;6.954;2022-12-20T12:10:22;11.60;1.00
6270;DHT22;3168;51.684;6.954;2022-12-20T12:12:52;11.60;1.00
6270;DHT22;3168;51.684;6.954;2022-12-20T12:15:21;11.60;1.00
6270;DHT22;3168;51.684;6.954;2022-12-20T12:17:53;11.70;1.00
6270;DHT22;3168;51.684;6.954;2022-12-20T12:22:56;11.70;1.00
6270;DHT22;3168;51.684;6.954;2022-12-20T12:25:20;11.60;1.00
6270;DHT22;3168;51.684;6.954;2022-12-20T12:27:46;11.60;1.00
6270;DHT22;3168;51.684;6.954;2022-12-20T12:30:14;11.60;1.00
6270;DHT22;3168;51.684;6.954;2022-12-20T12:32:56;11.60;1.00
6270;DHT22;3168;51.684;6.954;2022-12-20T12:35:45;11.60;1.00
6270;DHT22;3168;51.684;6.954;2022-12-20T12:38:30;11.70;1.00
6270;DHT22;3168;51.684;6.954;2022-12-20T12:41:10;11.80;1.00
6270;DHT22;3168;51.684;6.954;2022-12-20T12:43:50;11.70;1.00
6270;DHT22;3168;51.684;6.954;2022-12-20T12:46:16;11.80;1.00
6270;DHT22;3168;51.684;6.954;2022-12-20T12:48:45;11.80;1.00
6270;DHT22;3168;51.684;6.954;2022-12-20T12:51:09;11.80;1.00
6270;DHT22;3168;51.684;6.954;2022-12-20T12:53:52;11.80;1.00
6270;DHT22;3168;51.684;6.954;2022-12-20T12:56:35;11.80;1.00
6270;DHT22;3168;51.684;6.954;2022-12-20T12:59:09;11.70;1.00
6270;DHT22;3168;51.684;6.954;2022-12-20T13:04:28;11.70;1.00
6270;DHT22;3168;51.684;6.954;2022-12-20T13:06:55;11.70;1.00
6270;DHT22;3168;51.684;6.954;2022-12-20T13:14:46;11.80;1.00
6270;DHT22;3168;51.684;6.954;2022-12-20T13:20:14;11.80;1.00
6270;DHT22;3168;51.684;6.954;2022-12-20T13:22:34;11.90;1.00
6270;DHT22;3168;51.684;6.954;2022-12-20T13:25:01;11.90;1.00
6270;DHT22;3168;51.684;6.954;2022-12-20T13:27:36;11.80;1.00
6270;DHT22;3168;51.684;6.954;2022-12-20T13:30:22;11.90;1.00
6270;DHT22;3168;51.684;6.954;2022-12-20T13:32:56;11.80;1.00
6270;DHT22;3168;51.684;6.954;2022-12-20T13:35:27;11.60;6.10
6270;DHT22;3168;51.684;6.954;2022-12-20T13:38:00;11.50;14.20
6270;DHT22;3168;51.684;6.954;2022-12-20T13:40:39;11.50;18.40
6270;DHT22;3168;51.684;6.954;2022-12-20T13:43:05;11.40;25.40
6270;DHT22;3168;51.684;6.954;2022-12-20T13:45:30;11.30;30.40
6270;DHT22;3168;51.684;6.954;2022-12-20T13:47:57;11.20;38.90
6270;DHT22;3168;51.684;6.954;2022-12-20T13:50:25;11.20;43.70
6270;DHT22;3168;51.684;6.954;2022-12-20T13:52:49;11.10;48.80
6270;DHT22;3168;51.684;6.954;2022-12-20T13:55:19;11.20;54.10
6270;DHT22;3168;51.684;6.954;2022-12-20T13:57:42;11.00;61.70
6270;DHT22;3168;51.684;6.954;2022-12-20T14:00:14;11.00;61.70
6270;DHT22;3168;51.684;6.954;2022-12-20T14:02:39;11.00;69.40
6270;DHT22;3168;51.684;6.954;2022-12-20T14:05:11;11.00;79.80
6270;DHT22;3168;51.684;6.954;2022-12-20T14:07:32;10.90;84.10
6270;DHT22;3168;51.684;6.954;2022-12-20T14:09:59;10.80;91.00
6270;DHT22;3168;51.684;6.954;2022-12-20T14:12:23;10.80;96.60
6270;DHT22;3168;51.684;6.954;2022-12-20T14:14:50;10.80;99.90
6270;DHT22;3168;51.684;6.954;2022-12-20T14:17:21;10.70;99.90
6270;DHT22;3168;51.684;6.954;2022-12-20T14:19:42;10.70;99.90
6270;DHT22;3168;51.684;6.954;2022-12-20T14:22:10;10.70;99.90
6270;DHT22;3168;51.684;6.954;2022-12-20T14:24:35;10.70;99.90
6270;DHT22;3168;51.684;6.954;2022-12-20T14:27:01;10.70;99.90
6270;DHT22;3168;51.684;6.954;2022-12-20T14:29:28;10.70;99.90
6270;DHT22;3168;51.684;6.954;2022-12-20T14:31:52;10.70;99.90
6270;DHT22;3168;51.684;6.954;2022-12-20T14:34:24;10.60;99.90
6270;DHT22;3168;51.684;6.954;2022-12-20T14:36:49;10.60;99.90
6270;DHT22;3168;51.684;6.954;2022-12-20T14:39:24;10.50;99.90
6270;DHT22;3168;51.684;6.954;2022-12-20T14:41:54;10.60;99.90
6270;DHT22;3168;51.684;6.954;2022-12-20T14:44:15;10.50;99.90
6270;DHT22;3168;51.684;6.954;2022-12-20T14:46:45;10.50;99.90
6270;DHT22;3168;51.684;6.954;2022-12-20T14:49:20;10.50;99.90
6270;DHT22;3168;51.684;6.954;2022-12-20T14:51:47;10.50;99.90
6270;DHT22;3168;51.684;6.954;2022-12-20T14:54:18;10.40;99.90
6270;DHT22;3168;51.684;6.954;2022-12-20T14:56:44;10.40;99.90
6270;DHT22;3168;51.684;6.954;2022-12-20T14:59:13;10.40;99.90
6270;DHT22;3168;51.684;6.954;2022-12-20T15:01:38;10.40;99.90
6270;DHT22;3168;51.684;6.954;2022-12-20T15:04:17;10.40;99.90
6270;DHT22;3168;51.684;6.954;2022-12-20T15:06:38;10.40;99.90
6270;DHT22;3168;51.684;6.954;2022-12-20T15:09:02;10.40;99.90
6270;DHT22;3168;51.684;6.954;2022-12-20T15:11:28;10.40;99.90
6270;DHT22;3168;51.684;6.954;2022-12-20T15:13:54;10.30;99.90
6270;DHT22;3168;51.684;6.954;2022-12-20T15:16:23;10.30;99.90
6270;DHT22;3168;51.684;6.954;2022-12-20T15:18:48;10.30;99.90
6270;DHT22;3168;51.684;6.954;2022-12-20T15:21:15;10.30;99.90
6270;DHT22;3168;51.684;6.954;2022-12-20T15:23:51;10.30;99.90
6270;DHT22;3168;51.684;6.954;2022-12-20T15:26:18;10.20;99.90
6270;DHT22;3168;51.684;6.954;2022-12-20T15:28:42;10.20;99.90
6270;DHT22;3168;51.684;6.954;2022-12-20T15:31:09;10.20;99.90
6270;DHT22;3168;51.684;6.954;2022-12-20T15:33:37;10.20;99.90
6270;DHT22;3168;51.684;6.954;2022-12-20T15:36:01;10.20;99.90
6270;DHT22;3168;51.684;6.954;2022-12-20T15:38:26;10.00;99.90
6270;DHT22;3168;51.684;6.954;2022-12-20T15:40:54;10.10;99.90
6270;DHT22;3168;51.684;6.954;2022-12-20T15:43:19;10.20;99.90
6270;DHT22;3168;51.684;6.954;2022-12-20T15:45:46;10.10;99.90
6270;DHT22;3168;51.684;6.954;2022-12-20T15:48:13;10.10;99.90
6270;DHT22;3168;51.684;6.954;2022-12-20T15:50:38;10.10;99.90
6270;DHT22;3168;51.684;6.954;2022-12-20T15:53:03;10.10;99.90
6270;DHT22;3168;51.684;6.954;2022-12-20T15:55:29;10.10;99.90
6270;DHT22;3168;51.684;6.954;2022-12-20T15:57:55;10.10;99.90
6270;DHT22;3168;51.684;6.954;2022-12-20T16:00:22;10.10;99.90
6270;DHT22;3168;51.684;6.954;2022-12-20T16:02:48;10.10;99.90
6270;DHT22;3168;51.684;6.954;2022-12-20T16:05:13;10.10;99.90
6270;DHT22;3168;51.684;6.954;2022-12-20T16:07:39;10.10;99.90
6270;DHT22;3168;51.684;6.954;2022-12-20T16:10:06;10.10;99.90
6270;DHT22;3168;51.684;6.954;2022-12-20T16:12:33;10.00;99.90
6270;DHT22;3168;51.684;6.954;2022-12-20T16:14:58;10.00;99.90
6270;DHT22;3168;51.684;6.954;2022-12-20T16:17:24;10.00;99.90
6270;DHT22;3168;51.684;6.954;2022-12-20T16:19:50;10.00;99.90
6270;DHT22;3168;51.684;6.954;2022-12-20T16:22:17;10.00;99.90
6270;DHT22;3168;51.684;6.954;2022-12-20T16:24:41;9.90;99.90
6270;DHT22;3168;51.684;6.954;2022-12-20T16:27:08;9.90;99.90
6270;DHT22;3168;51.684;6.954;2022-12-20T16:29:33;9.90;99.90
6270;DHT22;3168;51.684;6.954;2022-12-20T16:31:59;9.90;99.90
6270;DHT22;3168;51.684;6.954;2022-12-20T16:34:25;10.00;99.90
6270;DHT22;3168;51.684;6.954;2022-12-20T16:36:51;10.00;99.90
6270;DHT22;3168;51.684;6.954;2022-12-20T16:39:16;10.00;99.90
6270;DHT22;3168;51.684;6.954;2022-12-20T16:41:42;9.90;99.90
6270;DHT22;3168;51.684;6.954;2022-12-20T16:44:12;9.90;99.90
6270;DHT22;3168;51.684;6.954;2022-12-20T16:46:37;9.90;99.90
6270;DHT22;3168;51.684;6.954;2022-12-20T16:49:03;9.90;99.90